Arrington, Illinois
Current Conditions -  °F | °C
As of 11:35 PM on Tuesday 21 Oct 2014 (Local Time) from KFWC Reporting Station
Clear Clear  
Wind Chill:   Ceiling: Unl
Heat Index:   Visibility: 10mi
Dew Point:   Wind: 6mph
Humidity: 85%   Direction: 360°N
Pressure: 30.2"   Gusts: NA
Location:  38.4104°N, 88.5287°W
Report Text: KFWC 220435Z AUTO 36005KT 10SM CLR 07/05 A3020 RMK AO1 T00730050
Loading
Personal Weather Stations






























Interactive Weather Map
Tropical Storm Tracking
New forecast layout! Learn more

10-Day Weather Forecast

Advertisements
Track Severe Weather on mobile